^^
Datos históricos de la estación: Murcia-Puente Tocinos
Diario Informe para Enero 28, 2019 Unidades:  Ingés    Métrico   Ambas
Diario Semanal Mensual Anual
  Máxima: Mínima: Promedio:
Temperatura: 69.1 °F 50.5 °F 58.8 °F
Punto de rocio: 37.4 °F 27.3 °F 31.6 °F
Humedad: 49% 21% 37%
Velocidad viento: 19mph 0mph 6.6mph
Racha viento: 33mph - -
Viento- - OSO
Presión: 30 in 29.8 in -
Precipitación: 0 in    
 
 
Tabla de datos para Enero 28, 2019
Hora Temperatura Punto de rocio Presión Viento Velocidad viento Racha viento Humedad Intensidad lluvia(por hora) Nubes
00:04 57.2 °F 29.8 °F 30 in ONO 8.1 mph 13 mph 35% 0 in
00:09 57.2 °F 29.8 °F 30 in ONO 7.7 mph 13.8 mph 35% 0 in
00:14 57.2 °F 29.8 °F 30 in Oeste 7.4 mph 14 mph 35% 0 in
00:19 56.8 °F 29.7 °F 30 in OSO 6.5 mph 10.4 mph 35.2% 0 in
00:24 56.8 °F 29.5 °F 30 in Oeste 5.9 mph 11.4 mph 35% 0 in
00:29 56.8 °F 29.7 °F 30 in Oeste 5.9 mph 11.5 mph 35.3% 0 in
00:34 57 °F 29.5 °F 30 in OSO 5.9 mph 12.7 mph 35% 0 in
00:39 57.2 °F 29.8 °F 30 in Oeste 6.5 mph 13 mph 35% 0 in
00:44 57.2 °F 29.8 °F 30 in OSO 6.9 mph 10 mph 35% 0 in
00:49 56.8 °F 29.5 °F 30 in OSO 6 mph 11.5 mph 35% 0 in
00:54 56.8 °F 29.3 °F 30 in OSO 5.4 mph 13.8 mph 35% 0 in
00:59 56.8 °F 29.3 °F 30 in Oeste 6 mph 14 mph 35% 0 in
01:04 56.5 °F 29.8 °F 30 in Oeste 6.4 mph 13 mph 36% 0 in
01:09 56.1 °F 29.5 °F 30 in Oeste 6.4 mph 15 mph 36% 0 in
01:14 55.9 °F 29.5 °F 30 in OSO 6.4 mph 15 mph 36% 0 in
01:19 55.9 °F 29.3 °F 30 in OSO 6.1 mph 9.2 mph 36% 0 in
01:24 55.9 °F 29.3 °F 30 in OSO 5.9 mph 11.5 mph 36% 0 in
01:29 55.9 °F 29.3 °F 30 in Oeste 5.5 mph 12 mph 36% 0 in
01:34 55.8 °F 29.8 °F 30 in Oeste 5.2 mph 9.2 mph 36.9% 0 in
01:39 55.8 °F 29.8 °F 30 in Oeste 4.9 mph 9.2 mph 37% 0 in
01:44 55.6 °F 29.7 °F 30 in Oeste 4.7 mph 10.4 mph 37% 0 in
01:49 55.8 °F 29.8 °F 30 in Oeste 5.1 mph 10 mph 37% 0 in
01:54 55.8 °F 29.8 °F 30 in Oeste 5.4 mph 10 mph 37% 0 in
01:59 55.8 °F 30 °F 30 in Oeste 5.4 mph 10.4 mph 37.2% 0 in
02:04 55.8 °F 30 °F 30 in Oeste 5.4 mph 15 mph 37.2% 0 in
02:09 55.9 °F 30 °F 30 in Oeste 6 mph 15 mph 37% 0 in
02:14 55.9 °F 30.2 °F 30 in Oeste 6.4 mph 9 mph 37.4% 0 in
02:19 55.9 °F 30.7 °F 30 in OSO 5.4 mph 10.4 mph 38% 0 in
02:24 55.9 °F 30.7 °F 30 in Oeste 4.7 mph 10 mph 38% 0 in
02:29 55.9 °F 30.7 °F 30 in Oeste 4.7 mph 9.2 mph 38% 0 in
02:34 55.8 °F 30.6 °F 30 in OSO 4.7 mph 8 mph 38% 0 in
02:39 55.8 °F 30.6 °F 30 in SO 3.7 mph 6 mph 38% 0 in
02:44 55.8 °F 31.1 °F 30 in OSO 3.1 mph 8.1 mph 38.9% 0 in
02:49 55.8 °F 31.3 °F 30 in OSO 3.4 mph 8 mph 39% 0 in
02:54 55.6 °F 31.1 °F 30 in OSO 3.6 mph 10.4 mph 39% 0 in
02:59 55.4 °F 30.9 °F 30 in Oeste 3.9 mph 10.4 mph 39.2% 0 in
03:04 55 °F 31.1 °F 30 in OSO 4 mph 7.4 mph 40% 0 in
03:09 54.9 °F 31.1 °F 30 in OSO 3.5 mph 7 mph 40% 0 in
03:14 54.9 °F 30.9 °F 30 in OSO 3.1 mph 5.8 mph 40% 0 in
03:19 54.7 °F 30.7 °F 30 in Oeste 2.7 mph 6 mph 40% 0 in
03:24 54.7 °F 31.3 °F 30 in Oeste 2.4 mph 4 mph 40.7% 0 in
03:29 54.7 °F 31.3 °F 30 in Oeste 2.1 mph 3 mph 41% 0 in
03:34 54.3 °F 31.3 °F 30 in Oeste 1.8 mph 4.6 mph 41.1% 0 in
03:39 54.1 °F 31.6 °F 30 in Este 1.9 mph 5 mph 42% 0 in
03:44 54.1 °F 31.5 °F 30 in Este 2 mph 5.9 mph 42% 0 in
03:49 54 °F 31.5 °F 30 in Este 2.5 mph 6 mph 42% 0 in
03:54 53.8 °F 31.6 °F 30 in ENE 2.9 mph 6.2 mph 42.7% 0 in
03:59 53.4 °F 31.5 °F 30 in ENE 3 mph 6 mph 43% 0 in
04:04 53.2 °F 31.5 °F 30 in ENE 3.1 mph 5 mph 43% 0 in
04:09 53.2 °F 31.8 °F 30 in ENE 2.4 mph 5 mph 44% 0 in
04:14 52.9 °F 31.6 °F 30 in ENE 1.8 mph 3.6 mph 44.1% 0 in
04:19 52.7 °F 31.6 °F 30 in ENE 1.6 mph 4 mph 44.7% 0 in
04:24 52.5 °F 31.8 °F 30 in ENE 1.4 mph 4.3 mph 45% 0 in
04:29 52.3 °F 31.5 °F 30 in OSO 1.4 mph 10.4 mph 44.7% 0 in
04:34 52.3 °F 31.5 °F 30 in SO 1.4 mph 15.6 mph 44.6% 0 in
04:39 52.7 °F 31.5 °F 30 in NO 3.7 mph 16.1 mph 44.3% 0 in
04:44 52.9 °F 31.5 °F 30 in ONO 5.2 mph 15 mph 44% 0 in
04:49 52.9 °F 31.5 °F 30 in Oeste 4.9 mph 9.7 mph 44.1% 0 in
04:54 53.1 °F 31.6 °F 30 in Oeste 4.7 mph 10 mph 44% 0 in
04:59 53.2 °F 31.8 °F 30 in ONO 5.2 mph 11.5 mph 44% 0 in
05:04 53.4 °F 31.8 °F 30 in ONO 5.4 mph 12 mph 43.7% 0 in
05:09 53.6 °F 31.8 °F 30 in NNO 5.3 mph 11 mph 43.3% 0 in
05:14 53.4 °F 32 °F 30 in NE 5.2 mph 10 mph 44% 0 in
05:19 52.9 °F 31.8 °F 30 in NNO 3.6 mph 8.1 mph 44.6% 0 in
05:24 52.3 °F 32 °F 30 in North 2.4 mph 8 mph 45.5% 0 in
05:29 52 °F 32 °F 30 in North 3.1 mph 8.1 mph 46.4% 0 in
05:34 51.4 °F 32 °F 30 in NNE 3.6 mph 7 mph 47.4% 0 in
05:39 51.1 °F 32 °F 30 in NNO 3.2 mph 5 mph 48% 0 in
05:44 50.7 °F 31.8 °F 30 in NO 2.9 mph 5.9 mph 48% 0 in
05:49 50.9 °F 31.8 °F 30 in NNO 2.6 mph 6 mph 48% 0 in
05:54 51.1 °F 32.2 °F 30 in NE 2.4 mph 6 mph 48% 0 in
05:59 50.9 °F 32 °F 30 in NE 2.4 mph 4 mph 48% 0 in
06:04 50.9 °F 32 °F 30 in NE 2.4 mph 4 mph 48.4% 0 in
06:09 50.7 °F 32 °F 30 in NE 2.1 mph 3 mph 48.8% 0 in
06:14 50.7 °F 32.2 °F 30 in NE 1.8 mph 2 mph 49% 0 in
06:19 50.5 °F 32 °F 30 in NE 0.7 mph 2.3 mph 48.8% 0 in
06:24 50.5 °F 31.6 °F 30 in Calm   6.9 mph 48.1% 0 in
06:29 51.1 °F 31.6 °F 30 in North 1.4 mph 7 mph 47.1% 0 in
06:34 51.3 °F 31.6 °F 30 in NNO 2.4 mph 7.4 mph 47% 0 in
06:39 51.1 °F 31.6 °F 30 in NNO 3.1 mph 7 mph 47.1% 0 in
06:44 50.7 °F 31.3 °F 30 in NO 3.6 mph 7 mph 47.1% 0 in
06:49 51.1 °F 31.3 °F 30 in NO 3.3 mph 6.2 mph 46.6% 0 in
06:54 51.6 °F 31.1 °F 30 in NO 3.1 mph 8.5 mph 45.4% 0 in
06:59 52 °F 31.3 °F 30 in NNO 3.7 mph 9 mph 45% 0 in
07:04 52.2 °F 31.3 °F 30 in NO 4 mph 6 mph 45% 0 in
07:09 52 °F 30.9 °F 30 in NO 3.4 mph 6 mph 44.4% 0 in
07:14 52.2 °F 31.1 °F 30 in ONO 2.9 mph 5 mph 44.4% 0 in
07:19 52.3 °F 31.1 °F 30 in NO 2.4 mph 5.8 mph 44% 0 in
07:24 52.5 °F 31.1 °F 30 in Este 2 mph 6 mph 43.8% 0 in
07:29 52.7 °F 30.9 °F 30 in SE 2.5 mph 6 mph 43.4% 0 in
07:34 52.5 °F 31.3 °F 30 in Sur 2.9 mph 6 mph 44% 0 in
07:39 52.7 °F 30.7 °F 30 in SO 3 mph 6.2 mph 43% 0 in
07:44 52.9 °F 30.9 °F 30 in Sur 3.1 mph 9.2 mph 43% 0 in
07:49 53.1 °F 31.1 °F 30 in SO 3.4 mph 9 mph 43% 0 in
07:54 53.2 °F 31.1 °F 30 in SO 3.6 mph 6.2 mph 42.7% 0 in
07:59 53.2 °F 31.5 °F 30 in Sur 3.6 mph 7.4 mph 43% 0 in
08:04 53.2 °F 31.3 °F 30 in SSO 3.6 mph 7 mph 43% 0 in
08:09 53.1 °F 31.3 °F 30 in SSO 4.2 mph 7.4 mph 43.5% 0 in
08:14 52.7 °F 31.5 °F 30 in SO 4.7 mph 8.5 mph 44% 0 in
08:19 52.5 °F 31.3 °F 30 in OSO 4.3 mph 9 mph 44% 0 in
08:24 52.5 °F 31.3 °F 30 in SO 4 mph 5.2 mph 44.1% 0 in
08:29 52.3 °F 31.6 °F 30 in OSO 3 mph 5 mph 45% 0 in
08:34 52.3 °F 31.5 °F 30 in SSO 2.4 mph 6.9 mph 45% 0 in
08:39 52 °F 31.8 °F 30 in Sur 2.8 mph 7.4 mph 46% 0 in
08:44 51.6 °F 31.6 °F 30 in Sur 3.1 mph 8.1 mph 46.4% 0 in
08:49 51.1 °F 31.6 °F 30 in Sur 4.3 mph 8.5 mph 47.2% 0 in
08:54 51.1 °F 32 °F 30 in Sur 5.2 mph 11.4 mph 47.9% 0 in
08:59 51.4 °F 31.8 °F 30 in Sur 5.3 mph 12 mph 47.1% 0 in
09:04 52 °F 31.8 °F 30 in Sur 5.4 mph 10 mph 46.2% 0 in
09:09 52 °F 32 °F 30 in Sur 5.7 mph 9.7 mph 46.4% 0 in
09:14 52 °F 32.4 °F 30 in Sur 5.9 mph 10.4 mph 47% 0 in
09:19 51.8 °F 32.2 °F 30 in Sur 5.9 mph 10 mph 47% 0 in
09:24 51.8 °F 32.2 °F 30 in Sur 5.9 mph 10 mph 47% 0 in
09:29 52 °F 32.4 °F 30 in Sur 5.6 mph 9.2 mph 47% 0 in
09:34 52.2 °F 32.4 °F 30 in SSO 5.4 mph 9.7 mph 46.8% 0 in
09:39 52.2 °F 32.5 °F 30 in SSO 5.7 mph 10 mph 46.9% 0 in
09:44 52.3 °F 32.5 °F 30 in SSO 5.9 mph 9 mph 46.6% 0 in
09:49 52.7 °F 32.4 °F 30 in SSO 5.5 mph 9.7 mph 46% 0 in
09:54 52.9 °F 32.5 °F 30 in SSO 5.2 mph 10 mph 46% 0 in
09:59 53.1 °F 32.9 °F 30 in Sur 5.3 mph 10 mph 46% 0 in
10:04 53.6 °F 32.7 °F 30 in Sur 5.4 mph 7 mph 45.1% 0 in
10:09 54 °F 33.1 °F 30 in Sur 4.8 mph 7 mph 45% 0 in
10:14 54.5 °F 33.1 °F 30 in SE 4.3 mph 7.4 mph 44.2% 0 in
10:19 54.9 °F 33.3 °F 30 in SE 4.2 mph 7 mph 44% 0 in
10:24 55.4 °F 33.6 °F 30 in SSE 4 mph 7 mph 43.5% 0 in
10:29 55.9 °F 33.6 °F 30 in Sur 3.5 mph 6.9 mph 43% 0 in
10:34 56.1 °F 33.4 °F 30 in SSO 3.1 mph 10.4 mph 42.2% 0 in
10:39 56.5 °F 33.4 °F 30 in SSO 4 mph 10 mph 41.8% 0 in
10:44 56.7 °F 33.1 °F 30 in Sur 4.7 mph 9 mph 41% 0 in
10:49 56.8 °F 33.3 °F 30 in Sur 5 mph 9 mph 40.8% 0 in
10:54 57.2 °F 33.3 °F 30 in SO 5.2 mph 8 mph 40.2% 0 in
10:59 57.4 °F 33.3 °F 30 in Oeste 4.2 mph 6.2 mph 40% 0 in
11:04 57.7 °F 33.3 °F 30 in SSO 3.6 mph 7.4 mph 39.5% 0 in
11:09 57.9 °F 33.4 °F 30 in Oeste 3.3 mph 7 mph 39.5% 0 in
11:14 58.3 °F 33.6 °F 30 in Oeste 3.1 mph 5 mph 39.3% 0 in
11:19 59 °F 33.8 °F 30 in Oeste 1.4 mph 2.9 mph 38.4% 0 in
11:24 59.4 °F 33.3 °F 30 in Calm   4.6 mph 37.1% 0 in
11:29 59.5 °F 33.3 °F 30 in Oeste 0.8 mph 5 mph 37% 0 in
11:34 59.7 °F 33.4 °F 30 in SO 1.4 mph 6.2 mph 37% 0 in
11:39 59.5 °F 33.3 °F 30 in Sur 2.2 mph 6.2 mph 37.1% 0 in
11:44 59.7 °F 33.8 °F 30 in SO 2.9 mph 6 mph 37.8% 0 in
11:49 59.9 °F 33.3 °F 30 in ONO 2.9 mph 11.8 mph 36.6% 0 in
11:54 59.9 °F 32.9 °F 30 in OSO 2.9 mph 13.5 mph 36.1% 0 in
11:59 60.3 °F 32.9 °F 30 in OSO 5.1 mph 14 mph 35.9% 0 in
12:04 60.4 °F 33.1 °F 30 in SO 6.4 mph 14 mph 35.6% 0 in
12:09 60.6 °F 32.9 °F 30 in OSO 6.7 mph 13 mph 35% 0 in
12:14 61 °F 33.1 °F 30 in Oeste 6.9 mph 13.8 mph 35% 0 in
12:19 61.2 °F 33.3 °F 30 in OSO 7.3 mph 17.8 mph 34.9% 0 in
12:24 61.5 °F 32.7 °F 30 in Oeste 7.6 mph 19 mph 33.9% 0 in
12:29 61.7 °F 32.9 °F 30 in OSO 8.8 mph 19 mph 33.8% 0 in
12:34 62.1 °F 32.7 °F 30 in Oeste 9.7 mph 18.5 mph 33.1% 0 in
12:39 62.2 °F 32.5 °F 29.9 in OSO 9 mph 19 mph 32.6% 0 in
12:44 62.6 °F 32.5 °F 29.9 in OSO 8.5 mph 14 mph 32.3% 0 in
12:49 63 °F 32.2 °F 29.9 in OSO 7.1 mph 20.7 mph 31.4% 0 in
12:54 63.1 °F 32 °F 29.9 in OSO 6.2 mph 21 mph 31% 0 in
12:59 63.1 °F 32 °F 29.9 in Oeste 8.8 mph 18.5 mph 31% 0 in
13:04 63.1 °F 32 °F 29.9 in Oeste 10.2 mph 22.5 mph 31% 0 in
13:09 63 °F 31.8 °F 29.9 in Oeste 11.4 mph 23 mph 31% 0 in
13:14 63 °F 32 °F 29.9 in Oeste 12.3 mph 20.4 mph 31.2% 0 in
13:19 63.3 °F 31.8 °F 29.9 in OSO 9.7 mph 20 mph 30.6% 0 in
13:24 63.9 °F 31.8 °F 29.9 in OSO 7.6 mph 17.3 mph 30.1% 0 in
13:29 64.2 °F 32 °F 29.9 in OSO 8.3 mph 19.7 mph 29.9% 0 in
13:34 64.8 °F 31.3 °F 29.9 in OSO 8.7 mph 20.7 mph 28.6% 0 in
13:39 64.9 °F 31.6 °F 29.9 in OSO 9.9 mph 21 mph 28.7% 0 in
13:44 65.3 °F 31.3 °F 29.9 in OSO 10.7 mph 25.3 mph 28% 0 in
13:49 65.7 °F 31.1 °F 29.9 in OSO 11.3 mph 25.6 mph 27.5% 0 in
13:54 65.7 °F 30.7 °F 29.9 in OSO 11.8 mph 26.5 mph 27% 0 in
13:59 65.8 °F 30.7 °F 29.9 in Oeste 12.6 mph 29.1 mph 26.8% 0 in
14:04 66 °F 30.2 °F 29.9 in Oeste 13 mph 29 mph 26.1% 0 in
14:09 66.2 °F 30.2 °F 29.9 in Oeste 14.3 mph 28 mph 26% 0 in
14:14 66.4 °F 30 °F 29.9 in ONO 15.2 mph 29.1 mph 25.5% 0 in
14:19 66.4 °F 29.5 °F 29.9 in ONO 16.9 mph 31.3 mph 25% 0 in
14:24 66.6 °F 29.5 °F 29.9 in ONO 18.1 mph 32.4 mph 24.7% 0 in
14:29 66.9 °F 28.9 °F 29.9 in ONO 17.9 mph 32 mph 24.1% 0 in
14:34 66.9 °F 28.9 °F 29.9 in Oeste 17.8 mph 31.3 mph 24% 0 in
14:39 67.1 °F 28.9 °F 29.9 in ONO 18 mph 32.7 mph 24% 0 in
14:44 67.5 °F 28.4 °F 29.9 in Oeste 18.1 mph 33 mph 23.1% 0 in
14:49 67.5 °F 28.2 °F 29.9 in Oeste 18.6 mph 32 mph 22.9% 0 in
14:54 67.6 °F 28 °F 29.8 in Oeste 19 mph 28 mph 22.5% 0 in
14:59 68 °F 28.2 °F 29.8 in Oeste 17.3 mph 29.1 mph 22.4% 0 in
15:04 68.2 °F 28 °F 29.8 in Oeste 16.3 mph 29 mph 22.1% 0 in
15:09 68.2 °F 28 °F 29.8 in ONO 15.9 mph 29 mph 22.1% 0 in
15:14 68.2 °F 28.6 °F 29.8 in ONO 15.6 mph 26 mph 22.7% 0 in
15:19 68.2 °F 28.2 °F 29.8 in ONO 14.7 mph 21.9 mph 22.3% 0 in
15:24 68.4 °F 28.9 °F 29.8 in Oeste 14 mph 22 mph 22.9% 0 in
15:29 68.5 °F 28.4 °F 29.8 in ONO 13.7 mph 24.6 mph 22.1% 0 in
15:34 68.4 °F 28 °F 29.8 in ONO 13.5 mph 25.6 mph 22% 0 in
15:39 68.5 °F 28.2 °F 29.8 in ONO 13.8 mph 26 mph 22% 0 in
15:44 68.5 °F 28.2 °F 29.8 in ONO 14 mph 25 mph 22% 0 in
15:49 68.9 °F 28.4 °F 29.8 in ONO 13.7 mph 23 mph 22% 0 in
15:54 69.1 °F 28.4 °F 29.8 in ONO 13.5 mph 22 mph 21.8% 0 in
15:59 69.1 °F 27.9 °F 29.8 in Oeste 13.2 mph 25.3 mph 21.3% 0 in
16:04 69.1 °F 27.5 °F 29.8 in ONO 13 mph 26.5 mph 21% 0 in
16:09 68.9 °F 27.3 °F 29.8 in ONO 15.3 mph 27.9 mph 21% 0 in
16:14 68.9 °F 27.3 °F 29.8 in ONO 17 mph 28 mph 21% 0 in
16:19 68.7 °F 27.7 °F 29.8 in ONO 16.2 mph 23 mph 21.4% 0 in
16:24 68.7 °F 28.4 °F 29.8 in ONO 15.6 mph 22.3 mph 22% 0 in
16:29 68.9 °F 28.4 °F 29.8 in Oeste 13.2 mph 22 mph 22% 0 in
16:34 68.7 °F 28.4 °F 29.8 in Oeste 11.4 mph 26.5 mph 22.1% 0 in
16:39 68.5 °F 29.1 °F 29.8 in ONO 11.4 mph 26 mph 22.9% 0 in
16:44 68.5 °F 29.1 °F 29.8 in ONO 11.4 mph 18 mph 23% 0 in
16:49 68.4 °F 28.6 °F 29.9 in ONO 9.9 mph 20.7 mph 22.4% 0 in
16:54 68.4 °F 28.9 °F 29.9 in Oeste 8.7 mph 21 mph 23% 0 in
16:59 68.2 °F 28.9 °F 29.9 in ONO 10.3 mph 18 mph 23% 0 in
17:04 68.2 °F 28.9 °F 29.9 in Oeste 11.2 mph 18.4 mph 23% 0 in
17:09 68.2 °F 29.1 °F 29.9 in NO 10.1 mph 18 mph 23.1% 0 in
17:14 68 °F 29.8 °F 29.9 in NO 9.2 mph 17.3 mph 24% 0 in
17:19 67.8 °F 29.7 °F 29.9 in NO 9.2 mph 17 mph 24% 0 in
17:24 67.5 °F 29.5 °F 29.9 in NO 9.2 mph 13 mph 24% 0 in
17:29 67.5 °F 29.5 °F 29.9 in NO 7.6 mph 13 mph 24.1% 0 in
17:34 67.3 °F 29.7 °F 29.9 in NO 6.4 mph 12 mph 24.5% 0 in
17:39 66.9 °F 30 °F 29.9 in NNO 6.3 mph 12.3 mph 25% 0 in
17:44 66.9 °F 29.8 °F 29.9 in NO 6.2 mph 12 mph 25% 0 in
17:49 66.7 °F 29.8 °F 29.9 in NO 6.2 mph 12 mph 25% 0 in
17:54 66.7 °F 30.7 °F 29.9 in NO 6.2 mph 9 mph 26% 0 in
17:59 66.6 °F 30.6 °F 29.9 in ONO 5 mph 8.5 mph 26% 0 in
18:04 66.4 °F 30.4 °F 29.9 in NO 4.3 mph 11.8 mph 26% 0 in
18:09 66 °F 29.8 °F 29.9 in NO 4.8 mph 15.2 mph 25.7% 0 in
18:14 65.8 °F 28.9 °F 29.9 in NO 5.2 mph 24.2 mph 25% 0 in
18:19 65.5 °F 28.8 °F 29.9 in NO 8 mph 24 mph 25% 0 in
18:24 65.1 °F 29.3 °F 29.9 in NNO 10 mph 17 mph 25.9% 0 in
18:29 64.8 °F 29.1 °F 29.9 in NO 9.1 mph 16 mph 26% 0 in
18:34 64.6 °F 29.7 °F 29.9 in NO 8.5 mph 12 mph 26.9% 0 in
18:39 64.4 °F 29.7 °F 29.9 in NO 7.1 mph 12 mph 27% 0 in
18:44 64 °F 29.5 °F 29.9 in ONO 6.2 mph 9.2 mph 27% 0 in
18:49 64 °F 29.8 °F 29.9 in ONO 5.3 mph 9 mph 27.6% 0 in
18:54 63.9 °F 30.2 °F 29.9 in ONO 4.7 mph 6.4 mph 28% 0 in
18:59 63.9 °F 30 °F 29.9 in Oeste 4 mph 9.2 mph 28% 0 in
19:04 63.9 °F 30 °F 29.9 in OSO 3.6 mph 9.7 mph 28% 0 in
19:09 63.5 °F 30.4 °F 29.9 in Oeste 4.9 mph 16.1 mph 28.7% 0 in
19:14 63.3 °F 30.6 °F 29.9 in OSO 5.9 mph 16 mph 29% 0 in
19:19 63.1 °F 30.7 °F 29.9 in OSO 7.8 mph 18.4 mph 29.3% 0 in
19:24 63 °F 30.9 °F 29.9 in Oeste 9.2 mph 18 mph 30% 0 in
19:29 62.6 °F 31.5 °F 29.9 in ONO 9.7 mph 18.4 mph 31% 0 in
19:34 62.4 °F 31.8 °F 29.9 in ONO 10 mph 18 mph 31.6% 0 in
19:39 62.1 °F 32.2 °F 29.9 in ONO 9.6 mph 20.8 mph 32.3% 0 in
19:44 61.9 °F 32.9 °F 29.9 in ONO 9.2 mph 21.3 mph 33.6% 0 in
19:49 61.7 °F 33.4 °F 29.9 in Oeste 11.1 mph 24.6 mph 34.6% 0 in
19:54 61.3 °F 33.8 °F 29.9 in ONO 12.5 mph 25 mph 35.4% 0 in
19:59 61.2 °F 34.3 °F 29.9 in Oeste 11.8 mph 21 mph 36.4% 0 in
20:04 61 °F 34.5 °F 30 in Oeste 11.4 mph 20.7 mph 37% 0 in
20:09 60.6 °F 34.9 °F 30 in Oeste 10.6 mph 21.3 mph 37.9% 0 in
20:14 60.4 °F 34.9 °F 30 in Oeste 10 mph 21 mph 38.2% 0 in
20:19 60.3 °F 35.2 °F 30 in Oeste 9.1 mph 16 mph 39% 0 in
20:24 60.1 °F 35.2 °F 30 in Oeste 8.5 mph 15.2 mph 39.2% 0 in
20:29 59.9 °F 35.6 °F 30 in Oeste 8 mph 15 mph 40% 0 in
20:34 59.7 °F 35.2 °F 30 in Oeste 7.6 mph 12 mph 40% 0 in
20:39 59.5 °F 35.2 °F 30 in Oeste 6.9 mph 12 mph 40% 0 in
20:44 59.5 °F 35.2 °F 30 in Oeste 6.4 mph 15.2 mph 40% 0 in
20:49 59.5 °F 35.6 °F 30 in Oeste 7.1 mph 15 mph 40.5% 0 in
20:54 59.4 °F 35.6 °F 30 in Oeste 7.6 mph 18.4 mph 41% 0 in
20:59 59.4 °F 35.1 °F 30 in OSO 8.6 mph 18 mph 40.2% 0 in
21:04 59.4 °F 35.1 °F 30 in Oeste 9.2 mph 18.4 mph 40% 0 in
21:09 59.4 °F 35.1 °F 29.9 in Oeste 10.3 mph 18.4 mph 40% 0 in
21:14 59.4 °F 35.1 °F 29.9 in Oeste 11.2 mph 18.4 mph 40% 0 in
21:19 59.4 °F 35.1 °F 29.9 in Oeste 10.5 mph 18.4 mph 40% 0 in
21:24 59.4 °F 35.1 °F 29.9 in OSO 10 mph 18.4 mph 40% 0 in
21:29 59.4 °F 34.9 °F 29.9 in Oeste 9.6 mph 18 mph 40% 0 in
21:34 59.2 °F 34.9 °F 30 in OSO 9.2 mph 17 mph 40% 0 in
21:39 59.2 °F 34.9 °F 30 in OSO 8.8 mph 16.1 mph 40% 0 in
21:44 59.2 °F 34.9 °F 30 in OSO 8.5 mph 14 mph 40% 0 in
21:49 59 °F 34.9 °F 30 in OSO 7.9 mph 12.7 mph 40.4% 0 in
21:54 58.8 °F 35.2 °F 30 in OSO 7.4 mph 13 mph 41% 0 in
21:59 58.6 °F 35.1 °F 30 in Oeste 7.4 mph 13 mph 41% 0 in
22:04 58.6 °F 34.9 °F 30 in OSO 7.4 mph 13 mph 41% 0 in
22:09 58.5 °F 34.9 °F 30 in OSO 7.1 mph 12.7 mph 41% 0 in
22:14 58.5 °F 34.9 °F 30 in OSO 6.9 mph 13 mph 41% 0 in
22:19 58.5 °F 35.1 °F 30 in OSO 6 mph 9.7 mph 41.6% 0 in
22:24 58.3 °F 35.2 °F 30 in OSO 5.4 mph 10 mph 42% 0 in
22:29 58.1 °F 35.1 °F 30 in OSO 4.6 mph 8.1 mph 42% 0 in
22:34 58.1 °F 35.1 °F 30 in OSO 4 mph 9.7 mph 42% 0 in
22:39 57.9 °F 35.6 °F 30 in OSO 4 mph 10 mph 42.9% 0 in
22:44 57.9 °F 35.4 °F 30 in OSO 4 mph 7.4 mph 43% 0 in
22:49 57.7 °F 35.4 °F 30 in OSO 4.4 mph 8.5 mph 43% 0 in
22:54 57.6 °F 35.4 °F 30 in Oeste 4.7 mph 9 mph 43.2% 0 in
22:59 57.6 °F 35.6 °F 30 in Oeste 4.3 mph 6 mph 44% 0 in
23:04 57.4 °F 35.6 °F 30 in Oeste 4 mph 6 mph 44% 0 in
23:09 57 °F 35.4 °F 30 in Oeste 3.4 mph 6 mph 44% 0 in
23:14 57 °F 35.8 °F 30 in Oeste 2.9 mph 6 mph 44.8% 0 in
23:19 56.8 °F 35.8 °F 30 in Oeste 2.9 mph 5 mph 45% 0 in
23:24 56.7 °F 35.6 °F 30 in Oeste 2.9 mph 5 mph 45% 0 in
23:29 56.5 °F 35.8 °F 30 in SE 2.2 mph 4.6 mph 45.8% 0 in
23:34 56.3 °F 35.8 °F 30 in SE 1.8 mph 5 mph 46% 0 in
23:39 55.9 °F 35.8 °F 30 in SE 1.9 mph 4 mph 46.4% 0 in
23:44 55.9 °F 36.3 °F 30 in SO 2 mph 8.5 mph 47.6% 0 in
23:49 56.1 °F 36.7 °F 30 in OSO 2.6 mph 9.2 mph 48% 0 in
23:54 56.8 °F 37 °F 30 in SO 3.1 mph 10.4 mph 47.5% 0 in
23:59 57.4 °F 37.4 °F 30 in SO 4.8 mph 11.5 mph 47% 0 in
Murcia-Puente Tocinos, Espa?a
Compliments of Weather Underground - 3.25 mb

La estación de MeteoMurcia.com, publica sus datos en los siguientes proyectos:

Weather Underground PWS IMURCIAP2 Meteoclimatic www.awekas.at

W3Counter
Web Analytics